createdAt,value
2023-09-15T00:00:27.073Z,10.15
2023-09-15T00:02:48.860Z,9.90
2023-09-15T00:05:11.238Z,9.68
2023-09-15T00:07:33.056Z,10.80
2023-09-15T00:09:53.547Z,9.20
2023-09-15T00:12:14.040Z,10.35
2023-09-15T00:14:35.730Z,10.27
2023-09-15T00:16:56.543Z,10.73
2023-09-15T00:19:17.715Z,9.45
2023-09-15T00:21:39.497Z,11.15
2023-09-15T00:24:03.246Z,9.23
2023-09-15T00:26:24.892Z,9.95
2023-09-15T00:28:45.895Z,11.55
2023-09-15T00:31:06.919Z,10.77
2023-09-15T00:33:27.354Z,10.45
2023-09-15T00:35:48.575Z,10.88
2023-09-15T00:38:09.026Z,9.43
2023-09-15T00:40:29.594Z,10.02
2023-09-15T00:42:52.216Z,10.00
2023-09-15T00:45:16.726Z,10.00
2023-09-15T00:47:37.616Z,10.35
2023-09-15T00:49:59.601Z,11.43
2023-09-15T00:52:20.273Z,9.77
2023-09-15T00:54:41.688Z,10.20
2023-09-15T00:57:02.655Z,9.50
2023-09-15T00:59:23.873Z,9.38
2023-09-15T01:01:48.862Z,10.45
2023-09-15T01:04:10.171Z,9.48
2023-09-15T01:06:31.487Z,10.32
2023-09-15T01:08:52.740Z,8.55
2023-09-15T01:11:13.522Z,9.60
2023-09-15T01:13:35.470Z,10.57
2023-09-15T01:16:06.254Z,10.52
2023-09-15T01:18:55.401Z,12.73
2023-09-15T01:21:50.228Z,11.13
2023-09-15T01:24:33.415Z,10.02
2023-09-15T01:27:06.313Z,9.98
2023-09-15T01:29:54.970Z,9.40
2023-09-15T01:32:19.949Z,10.65
2023-09-15T01:34:47.574Z,8.90
2023-09-15T01:37:08.177Z,9.32
2023-09-15T01:39:31.614Z,10.52
2023-09-15T01:41:52.700Z,11.00
2023-09-15T01:44:13.224Z,9.43
2023-09-15T01:46:33.906Z,9.48
2023-09-15T01:48:56.342Z,10.23
2023-09-15T01:51:17.918Z,12.13
2023-09-15T01:53:38.627Z,11.70
2023-09-15T01:55:59.146Z,11.00
2023-09-15T01:58:20.011Z,10.18
2023-09-15T02:00:55.643Z,10.73
2023-09-15T02:03:17.874Z,10.18
2023-09-15T02:05:38.712Z,11.85
2023-09-15T02:07:59.473Z,11.88
2023-09-15T02:10:20.171Z,11.23
2023-09-15T02:12:40.647Z,9.93
2023-09-15T02:15:01.114Z,8.82
2023-09-15T02:17:21.707Z,10.70
2023-09-15T02:19:43.233Z,10.20
2023-09-15T02:22:04.368Z,11.02
2023-09-15T02:24:24.987Z,11.05
2023-09-15T02:26:45.579Z,10.52
2023-09-15T02:29:06.230Z,10.73
2023-09-15T02:31:26.974Z,9.52
2023-09-15T02:33:47.831Z,13.10
2023-09-15T02:36:09.064Z,9.90
2023-09-15T02:38:29.975Z,10.88
2023-09-15T02:40:50.687Z,10.93
2023-09-15T02:43:11.326Z,9.85
2023-09-15T02:45:36.371Z,11.50
2023-09-15T02:47:56.890Z,11.63
2023-09-15T02:50:18.108Z,9.65
2023-09-15T02:52:39.053Z,9.02
2023-09-15T02:54:59.974Z,10.10
2023-09-15T02:57:20.824Z,10.30
2023-09-15T02:59:41.298Z,10.00
2023-09-15T03:02:01.843Z,10.43
2023-09-15T03:04:22.703Z,10.93
2023-09-15T03:06:43.440Z,10.88
2023-09-15T03:09:04.799Z,11.02
2023-09-15T03:11:25.553Z,10.40
2023-09-15T03:13:46.497Z,10.57
2023-09-15T03:16:13.058Z,10.45
2023-09-15T03:18:33.860Z,11.13
2023-09-15T03:20:54.374Z,11.10
2023-09-15T03:23:15.344Z,11.80
2023-09-15T03:25:35.907Z,10.93
2023-09-15T03:27:56.535Z,10.05
2023-09-15T03:30:17.163Z,10.82
2023-09-15T03:32:38.221Z,12.30
2023-09-15T03:34:59.198Z,10.15
2023-09-15T03:37:19.804Z,11.05
2023-09-15T03:39:40.158Z,10.50
2023-09-15T03:42:00.751Z,11.43
2023-09-15T03:44:23.570Z,12.30
2023-09-15T03:46:44.310Z,12.88
2023-09-15T03:49:06.542Z,12.80
2023-09-15T03:51:27.427Z,12.75
2023-09-15T03:53:48.267Z,12.45
2023-09-15T03:56:08.708Z,12.75
2023-09-15T03:58:29.423Z,13.40
2023-09-15T04:00:50.309Z,12.45
2023-09-15T04:03:12.397Z,13.75
2023-09-15T04:05:33.891Z,11.55
2023-09-15T04:07:54.704Z,12.82
2023-09-15T04:10:15.609Z,12.65
2023-09-15T04:12:36.087Z,11.80
2023-09-15T04:14:57.011Z,12.70
2023-09-15T04:17:17.867Z,12.27
2023-09-15T04:19:38.855Z,13.38
2023-09-15T04:22:00.593Z,13.30
2023-09-15T04:24:21.366Z,13.80
2023-09-15T04:26:41.905Z,12.50
2023-09-15T04:29:02.598Z,13.05
2023-09-15T04:31:23.195Z,12.80
2023-09-15T04:33:43.679Z,12.52
2023-09-15T04:36:04.333Z,13.52
2023-09-15T04:38:25.187Z,11.85
2023-09-15T04:40:45.811Z,11.00
2023-09-15T04:43:06.373Z,12.15
2023-09-15T04:45:27.353Z,12.18
2023-09-15T04:47:47.940Z,11.68
2023-09-15T04:50:09.419Z,12.88
2023-09-15T04:52:29.726Z,11.95
2023-09-15T04:54:50.286Z,11.48
2023-09-15T04:57:10.650Z,12.63
2023-09-15T04:59:31.118Z,12.73
2023-09-15T05:01:51.534Z,13.48
2023-09-15T05:04:12.190Z,14.00
2023-09-15T05:06:32.729Z,14.07
2023-09-15T05:08:53.480Z,15.23
2023-09-15T05:11:14.662Z,12.98
2023-09-15T05:13:35.997Z,13.18
2023-09-15T05:15:56.541Z,14.80
2023-09-15T05:18:17.454Z,12.85
2023-09-15T05:20:38.003Z,13.30
2023-09-15T05:22:58.686Z,14.00
2023-09-15T05:25:19.416Z,16.52
2023-09-15T05:27:40.003Z,13.70
2023-09-15T05:30:00.468Z,15.52
2023-09-15T05:32:21.012Z,16.88
2023-09-15T05:34:41.703Z,15.13
2023-09-15T05:37:02.188Z,17.17
2023-09-15T05:39:23.451Z,17.65
2023-09-15T05:41:43.933Z,18.85
2023-09-15T05:44:04.635Z,20.55
2023-09-15T05:46:25.349Z,20.92
2023-09-15T05:48:45.814Z,21.60
2023-09-15T05:51:08.187Z,21.25
2023-09-15T05:53:29.081Z,22.73
2023-09-15T05:55:49.763Z,21.77
2023-09-15T05:58:10.571Z,24.15
2023-09-15T06:00:30.994Z,24.30
2023-09-15T06:02:51.707Z,20.77
2023-09-15T06:05:12.834Z,21.95
2023-09-15T06:07:33.418Z,23.58
2023-09-15T06:09:53.835Z,22.90
2023-09-15T06:12:14.310Z,20.63
2023-09-15T06:14:37.109Z,22.35
2023-09-15T06:16:58.323Z,21.60
2023-09-15T06:19:19.310Z,21.00
2023-09-15T06:21:39.801Z,21.30
2023-09-15T06:24:00.441Z,23.35
2023-09-15T06:26:21.266Z,20.65
2023-09-15T06:28:41.784Z,22.55
2023-09-15T06:31:02.977Z,21.80
2023-09-15T06:33:23.741Z,25.83
2023-09-15T06:35:44.349Z,21.52
2023-09-15T06:38:07.960Z,21.27
2023-09-15T06:40:28.765Z,19.48
2023-09-15T06:42:49.285Z,20.90
2023-09-15T06:45:11.939Z,20.73
2023-09-15T06:47:32.745Z,21.48
2023-09-15T06:49:53.699Z,21.90
2023-09-15T06:52:14.247Z,23.42
2023-09-15T06:54:34.982Z,22.70
2023-09-15T06:56:55.825Z,24.75
2023-09-15T06:59:16.284Z,21.40
2023-09-15T07:01:36.789Z,24.00
2023-09-15T07:03:57.405Z,23.65
2023-09-15T07:06:19.713Z,20.75
2023-09-15T07:08:41.063Z,21.58
2023-09-15T07:11:01.748Z,26.60
2023-09-15T07:13:22.411Z,22.38
2023-09-15T07:15:43.039Z,20.58
2023-09-15T07:18:07.105Z,21.85
2023-09-15T07:20:27.798Z,19.67
2023-09-15T07:22:48.422Z,23.25
2023-09-15T07:25:09.361Z,23.27
2023-09-15T07:27:30.307Z,21.60
2023-09-15T07:29:51.574Z,22.15
2023-09-15T07:32:12.675Z,20.55
2023-09-15T07:34:33.929Z,21.08
2023-09-15T07:36:54.773Z,21.80
2023-09-15T07:39:16.904Z,21.45
2023-09-15T07:41:37.416Z,23.48
2023-09-15T07:44:01.861Z,20.20
2023-09-15T07:46:22.570Z,19.20
2023-09-15T07:48:43.620Z,20.00
2023-09-15T07:51:04.472Z,21.13
2023-09-15T07:53:25.129Z,20.25
2023-09-15T07:55:45.966Z,18.67
2023-09-15T07:58:06.923Z,18.85
2023-09-15T08:00:27.966Z,23.17
2023-09-15T08:02:48.496Z,19.42
2023-09-15T08:05:09.422Z,19.25
2023-09-15T08:07:30.269Z,18.52
2023-09-15T08:09:51.075Z,17.85
2023-09-15T08:12:11.685Z,16.13
2023-09-15T08:14:32.520Z,17.98
2023-09-15T08:16:53.375Z,20.58
2023-09-15T08:19:14.244Z,17.02
2023-09-15T08:21:35.321Z,16.45
2023-09-15T08:23:56.978Z,14.95
2023-09-15T08:26:18.115Z,15.75
2023-09-15T08:28:39.059Z,16.48
2023-09-15T08:30:59.559Z,16.70
2023-09-15T08:33:20.612Z,16.77
2023-09-15T08:35:41.326Z,16.10
2023-09-15T08:38:01.860Z,15.52
2023-09-15T08:40:22.829Z,14.18
2023-09-15T08:42:43.942Z,13.68
2023-09-15T08:45:08.269Z,13.63
2023-09-15T08:47:33.119Z,13.27
2023-09-15T08:49:54.143Z,10.52
2023-09-15T08:52:18.979Z,12.27
2023-09-15T08:54:39.993Z,11.85
2023-09-15T08:57:02.172Z,11.52
2023-09-15T08:59:23.858Z,14.07
2023-09-15T09:01:44.862Z,13.18
2023-09-15T09:04:06.404Z,12.30
2023-09-15T09:06:29.064Z,13.00
2023-09-15T09:08:50.608Z,14.18
2023-09-15T09:11:12.130Z,12.73
2023-09-15T09:13:43.176Z,14.82
2023-09-15T09:16:11.920Z,12.93
2023-09-15T09:18:34.175Z,12.40
2023-09-15T09:20:54.889Z,12.55
2023-09-15T09:23:15.907Z,11.13
2023-09-15T09:25:36.900Z,12.20
2023-09-15T09:27:57.580Z,10.98
2023-09-15T09:30:18.072Z,11.00
2023-09-15T09:32:38.933Z,12.77
2023-09-15T09:34:59.302Z,11.07
2023-09-15T09:37:25.698Z,12.93
2023-09-15T09:39:48.095Z,10.65
2023-09-15T09:42:09.004Z,10.77
2023-09-15T09:44:30.813Z,12.50
2023-09-15T09:46:53.847Z,13.25
2023-09-15T09:49:14.400Z,12.50
2023-09-15T09:51:39.491Z,13.15
2023-09-15T09:54:01.315Z,12.32
2023-09-15T09:56:22.849Z,13.05
2023-09-15T09:58:43.718Z,10.73
2023-09-15T10:01:07.466Z,12.57
2023-09-15T10:03:27.939Z,12.27
2023-09-15T10:05:49.937Z,16.63
2023-09-15T10:08:11.372Z,12.75
2023-09-15T10:10:33.563Z,12.90
2023-09-15T10:12:54.759Z,12.40
2023-09-15T10:15:15.965Z,11.70
2023-09-15T10:17:37.210Z,12.52
2023-09-15T10:19:57.886Z,10.98
2023-09-15T10:22:19.189Z,13.57
2023-09-15T10:24:48.587Z,12.73
2023-09-15T10:27:09.173Z,13.95
2023-09-15T10:29:32.709Z,11.82
2023-09-15T10:31:53.689Z,12.45
2023-09-15T10:34:15.950Z,12.20
2023-09-15T10:36:36.763Z,11.98
2023-09-15T10:38:58.725Z,11.50
2023-09-15T10:41:29.845Z,12.32
2023-09-15T10:46:11.076Z,10.43
2023-09-15T10:48:45.592Z,11.77
2023-09-15T10:51:10.020Z,10.57
2023-09-15T10:53:43.600Z,13.30
2023-09-15T10:56:04.240Z,11.18
2023-09-15T10:58:25.017Z,11.07
2023-09-15T11:00:46.708Z,10.20
2023-09-15T11:03:08.244Z,10.90
2023-09-15T11:05:28.983Z,10.52
2023-09-15T11:07:50.608Z,9.68
2023-09-15T11:10:11.449Z,10.55
2023-09-15T11:12:32.148Z,9.70
2023-09-15T11:14:59.343Z,11.93
2023-09-15T11:17:20.116Z,10.55
2023-09-15T11:19:41.061Z,8.07
2023-09-15T11:22:04.819Z,8.45
2023-09-15T11:24:26.166Z,8.25
2023-09-15T11:26:49.140Z,8.63
2023-09-15T11:29:09.858Z,7.90
2023-09-15T11:31:34.949Z,8.07
2023-09-15T11:33:56.820Z,9.32
2023-09-15T11:36:18.629Z,8.93
2023-09-15T11:38:39.653Z,8.15
2023-09-15T11:41:00.372Z,7.65
2023-09-15T11:43:24.962Z,8.05
2023-09-15T11:45:45.740Z,8.93
2023-09-15T11:48:08.104Z,8.85
2023-09-15T11:50:29.861Z,8.75
2023-09-15T11:52:50.418Z,8.52
2023-09-15T11:55:21.963Z,7.93
2023-09-15T11:57:42.751Z,10.30
2023-09-15T12:00:05.633Z,8.70
2023-09-15T12:02:26.632Z,9.57
2023-09-15T12:04:47.291Z,9.20
2023-09-15T12:07:08.716Z,10.00
2023-09-15T12:09:29.566Z,9.23
2023-09-15T12:11:51.252Z,8.02
2023-09-15T12:14:16.092Z,8.40
2023-09-15T12:16:37.353Z,10.45
2023-09-15T12:19:00.473Z,8.93
2023-09-15T12:21:25.899Z,8.75
2023-09-15T12:23:52.491Z,8.82
2023-09-15T12:26:13.589Z,8.43
2023-09-15T12:28:35.751Z,8.00
2023-09-15T12:31:01.219Z,8.35
2023-09-15T12:35:42.557Z,7.63
2023-09-15T12:38:03.352Z,7.90
2023-09-15T12:40:24.119Z,7.85
2023-09-15T12:42:47.626Z,7.45
2023-09-15T12:45:08.896Z,7.25
2023-09-15T12:47:29.300Z,6.75
2023-09-15T12:49:49.777Z,8.80
2023-09-15T12:52:13.176Z,6.15
2023-09-15T12:54:33.969Z,7.40
2023-09-15T12:56:54.766Z,6.72
2023-09-15T12:59:15.489Z,6.18
2023-09-15T13:01:36.834Z,6.35
2023-09-15T13:03:57.837Z,6.68
2023-09-15T13:06:18.705Z,7.10
2023-09-15T13:08:39.285Z,6.97
2023-09-15T13:10:59.755Z,6.85
2023-09-15T13:13:20.175Z,6.97
2023-09-15T13:15:40.812Z,6.15
2023-09-15T13:18:01.342Z,6.90
2023-09-15T13:20:21.779Z,6.57
2023-09-15T13:22:42.396Z,6.78
2023-09-15T13:25:04.560Z,6.50
2023-09-15T13:27:25.074Z,7.00
2023-09-15T13:29:45.653Z,5.88
2023-09-15T13:32:07.232Z,5.90
2023-09-15T13:34:28.610Z,5.82
2023-09-15T13:36:49.405Z,6.60
2023-09-15T13:39:10.232Z,5.90
2023-09-15T13:41:31.107Z,5.40
2023-09-15T13:43:51.898Z,5.60
2023-09-15T13:46:12.760Z,6.22
